createdAt,value
2018-07-25T00:02:01.090Z,99.90
2018-07-25T00:04:29.169Z,99.90
2018-07-25T00:06:57.253Z,99.90
2018-07-25T00:09:25.317Z,99.90
2018-07-25T00:11:53.378Z,99.90
2018-07-25T00:14:21.881Z,99.90
2018-07-25T00:16:50.035Z,99.90
2018-07-25T00:19:18.101Z,99.90
2018-07-25T00:21:46.295Z,99.90
2018-07-25T00:24:14.457Z,99.90
2018-07-25T00:26:42.537Z,99.90
2018-07-25T00:29:10.926Z,99.90
2018-07-25T00:31:39.278Z,99.90
2018-07-25T00:36:35.825Z,99.90
2018-07-25T00:41:33.345Z,99.90
2018-07-25T00:44:01.566Z,99.90
2018-07-25T00:46:29.797Z,99.90
2018-07-25T00:48:59.098Z,99.90
2018-07-25T00:51:27.761Z,99.90
2018-07-25T00:53:57.332Z,99.90
2018-07-25T00:56:26.305Z,99.90
2018-07-25T00:58:54.726Z,99.90
2018-07-25T01:01:23.268Z,99.90
2018-07-25T01:03:51.711Z,99.90
2018-07-25T01:06:19.801Z,99.90
2018-07-25T01:08:50.489Z,99.90
2018-07-25T01:16:14.360Z,99.90
2018-07-25T01:18:42.537Z,99.90
2018-07-25T01:21:10.846Z,99.90
2018-07-25T01:23:38.910Z,99.90
2018-07-25T01:26:08.124Z,99.90
2018-07-25T01:36:00.549Z,99.90
2018-07-25T01:38:28.885Z,99.90
2018-07-25T01:40:57.115Z,99.90
2018-07-25T01:43:25.973Z,99.90
2018-07-25T01:45:54.613Z,99.90
2018-07-25T01:48:23.422Z,99.90
2018-07-25T01:55:48.005Z,99.90
2018-07-25T01:58:16.142Z,99.90
2018-07-25T02:03:16.241Z,99.90
2018-07-25T02:05:45.237Z,99.90
2018-07-25T02:08:13.433Z,99.90
2018-07-25T02:10:44.737Z,99.90
2018-07-25T02:13:14.386Z,99.90
2018-07-25T02:15:42.493Z,99.90
2018-07-25T02:18:10.729Z,99.90
2018-07-25T02:20:38.850Z,99.90
2018-07-25T02:24:09.405Z,99.90
2018-07-25T02:26:37.468Z,99.90
2018-07-25T02:29:05.552Z,99.90
2018-07-25T02:31:33.638Z,99.90
2018-07-25T02:34:07.161Z,99.90
2018-07-25T02:36:35.291Z,99.90
2018-07-25T02:39:04.525Z,99.90
2018-07-25T02:41:32.622Z,99.90
2018-07-25T02:44:00.754Z,99.90
2018-07-25T02:46:28.886Z,99.90
2018-07-25T02:48:57.074Z,99.90
2018-07-25T02:51:25.158Z,99.90
2018-07-25T02:53:53.342Z,99.90
2018-07-25T02:56:21.541Z,99.90
2018-07-25T02:58:49.660Z,99.90
2018-07-25T03:01:17.721Z,99.90
2018-07-25T03:03:45.910Z,99.90
2018-07-25T03:06:13.997Z,99.90
2018-07-25T03:08:42.116Z,99.90
2018-07-25T03:11:10.218Z,99.90
2018-07-25T03:13:38.297Z,99.90
2018-07-25T03:16:07.569Z,99.90
2018-07-25T03:21:03.809Z,99.90
2018-07-25T03:23:33.155Z,99.90
2018-07-25T03:26:02.321Z,99.90
2018-07-25T03:31:00.678Z,99.90
2018-07-25T03:33:28.837Z,99.90
2018-07-25T03:35:58.026Z,99.90
2018-07-25T03:38:26.924Z,99.90
2018-07-25T03:40:55.361Z,99.90
2018-07-25T03:45:52.045Z,99.90
2018-07-25T03:48:20.465Z,99.90
2018-07-25T03:50:48.820Z,99.90
2018-07-25T03:53:17.056Z,99.90
2018-07-25T03:55:45.166Z,99.90
2018-07-25T03:58:13.383Z,99.90
2018-07-25T04:00:41.540Z,99.90
2018-07-25T04:03:09.609Z,99.90
2018-07-25T04:05:37.969Z,99.90
2018-07-25T04:08:07.693Z,99.90
2018-07-25T04:10:35.797Z,99.90
2018-07-25T04:13:04.881Z,99.90
2018-07-25T04:15:33.869Z,99.90
2018-07-25T04:18:02.245Z,99.90
2018-07-25T04:20:30.816Z,99.90
2018-07-25T04:22:59.931Z,99.90
2018-07-25T04:25:28.771Z,99.90
2018-07-25T04:35:21.171Z,99.90
2018-07-25T04:37:49.902Z,99.90
2018-07-25T04:40:18.725Z,99.90
2018-07-25T04:45:15.062Z,99.90
2018-07-25T04:48:46.857Z,99.90
2018-07-25T04:51:15.312Z,99.90
2018-07-25T04:53:43.519Z,99.90
2018-07-25T04:56:12.960Z,99.90
2018-07-25T05:01:10.066Z,99.90
2018-07-25T05:03:38.797Z,99.90
2018-07-25T05:06:06.895Z,99.90
2018-07-25T05:08:34.981Z,99.90
2018-07-25T05:11:04.094Z,99.90
2018-07-25T05:18:28.873Z,99.90
2018-07-25T05:20:58.550Z,99.90
2018-07-25T05:23:27.673Z,99.90
2018-07-25T05:25:56.181Z,99.90
2018-07-25T05:28:25.351Z,99.90
2018-07-25T05:30:54.297Z,99.90
2018-07-25T05:35:50.753Z,99.90
2018-07-25T05:40:46.895Z,99.90
2018-07-25T05:43:15.635Z,99.90
2018-07-25T05:45:43.777Z,99.90
2018-07-25T05:50:40.462Z,99.90
2018-07-25T05:53:08.826Z,99.90
2018-07-25T05:55:37.225Z,99.90
2018-07-25T05:58:05.556Z,99.90
2018-07-25T06:03:02.300Z,99.90
2018-07-25T06:05:30.782Z,99.90
2018-07-25T06:07:59.093Z,99.90
2018-07-25T06:10:27.345Z,99.90
2018-07-25T06:15:24.669Z,99.90
2018-07-25T06:17:53.425Z,99.70
2018-07-25T06:22:49.508Z,97.40
2018-07-25T06:25:17.614Z,98.10
2018-07-25T06:27:46.614Z,96.70
2018-07-25T06:30:14.754Z,96.80
2018-07-25T06:32:43.354Z,95.70
2018-07-25T06:35:11.779Z,95.30
2018-07-25T06:37:40.436Z,94.90
2018-07-25T06:40:09.313Z,94.00
2018-07-25T06:42:37.965Z,94.60
2018-07-25T06:45:07.134Z,95.20
2018-07-25T06:47:35.549Z,93.80
2018-07-25T06:50:04.261Z,94.70
2018-07-25T06:52:32.426Z,93.20
2018-07-25T06:55:00.583Z,92.10
2018-07-25T06:57:28.793Z,91.30
2018-07-25T06:59:56.862Z,91.90
2018-07-25T07:02:25.004Z,87.80
2018-07-25T07:04:53.233Z,87.00
2018-07-25T07:07:21.369Z,89.10
2018-07-25T07:09:49.745Z,84.30
2018-07-25T07:12:17.935Z,85.30
2018-07-25T07:14:46.013Z,82.20
2018-07-25T07:17:14.161Z,80.90
2018-07-25T07:19:42.425Z,82.10
2018-07-25T07:22:11.186Z,82.00
2018-07-25T07:24:39.296Z,81.00
2018-07-25T07:27:07.599Z,77.40
2018-07-25T07:29:35.998Z,81.00
2018-07-25T07:32:05.357Z,81.50
2018-07-25T07:34:34.637Z,81.40
2018-07-25T07:37:02.857Z,77.20
2018-07-25T07:39:32.397Z,74.20
2018-07-25T07:44:28.473Z,74.50
2018-07-25T07:46:56.549Z,73.00
2018-07-25T07:49:24.941Z,69.20
2018-07-25T07:51:54.226Z,72.80
2018-07-25T07:54:22.289Z,69.30
2018-07-25T07:56:51.205Z,66.70
2018-07-25T07:59:19.347Z,63.80
2018-07-25T08:01:47.409Z,64.90
2018-07-25T08:09:14.337Z,63.10
2018-07-25T08:11:43.294Z,65.70
2018-07-25T08:16:40.346Z,60.30
2018-07-25T08:21:37.514Z,60.40
2018-07-25T08:24:05.848Z,60.10
2018-07-25T08:26:38.061Z,59.90
2018-07-25T08:29:06.537Z,58.80
2018-07-25T08:31:35.266Z,55.10
2018-07-25T08:34:03.393Z,54.60
2018-07-25T08:36:32.145Z,54.60
2018-07-25T08:39:00.803Z,56.70
2018-07-25T08:41:30.423Z,54.30
2018-07-25T08:43:58.802Z,55.50
2018-07-25T08:46:26.928Z,52.00
2018-07-25T08:48:55.074Z,52.60
2018-07-25T08:51:23.307Z,53.90
2018-07-25T08:53:51.514Z,51.70
2018-07-25T08:56:19.780Z,49.80
2018-07-25T08:58:48.265Z,51.20
2018-07-25T09:01:16.465Z,50.60
2018-07-25T09:03:45.012Z,49.30
2018-07-25T09:06:13.833Z,46.50
2018-07-25T09:08:42.226Z,49.60
2018-07-25T09:11:10.402Z,50.90
2018-07-25T09:13:38.881Z,49.00
2018-07-25T09:16:07.117Z,49.30
2018-07-25T09:18:36.024Z,47.60
2018-07-25T09:21:04.593Z,49.20
2018-07-25T09:23:32.841Z,47.40
2018-07-25T09:28:29.542Z,47.80
2018-07-25T09:30:57.886Z,46.80
2018-07-25T09:40:50.339Z,43.60
2018-07-25T09:43:19.113Z,45.30
2018-07-25T09:45:47.184Z,44.00
2018-07-25T09:48:15.353Z,41.70
2018-07-25T09:50:44.374Z,44.30
2018-07-25T09:53:13.478Z,43.90
2018-07-25T09:55:41.595Z,43.00
2018-07-25T09:58:10.713Z,45.10
2018-07-25T10:00:44.757Z,44.40
2018-07-25T10:03:13.082Z,43.20
2018-07-25T10:05:41.318Z,44.30
2018-07-25T10:08:10.372Z,44.60
2018-07-25T10:10:38.869Z,43.20
2018-07-25T10:13:07.715Z,41.70
2018-07-25T10:15:36.281Z,42.50
2018-07-25T10:18:04.657Z,41.20
2018-07-25T10:25:29.809Z,40.90
2018-07-25T10:30:25.969Z,40.70
2018-07-25T10:32:59.329Z,39.60
2018-07-25T10:35:27.411Z,43.20
2018-07-25T10:42:54.193Z,40.70
2018-07-25T10:47:51.838Z,39.80
2018-07-25T10:50:19.974Z,42.40
2018-07-25T10:52:48.039Z,42.00
2018-07-25T10:55:16.213Z,42.30
2018-07-25T10:57:44.438Z,39.70
2018-07-25T11:00:13.431Z,40.90
2018-07-25T11:02:42.817Z,42.80
2018-07-25T11:05:11.204Z,40.70
2018-07-25T11:07:39.394Z,39.00
2018-07-25T11:10:07.541Z,38.60
2018-07-25T11:12:36.402Z,37.30
2018-07-25T11:15:04.949Z,39.90
2018-07-25T11:17:33.233Z,38.60
2018-07-25T11:22:29.799Z,40.40
2018-07-25T11:27:27.653Z,40.70
2018-07-25T11:29:56.329Z,37.40
2018-07-25T11:32:24.558Z,36.90
2018-07-25T11:34:52.694Z,37.10
2018-07-25T11:37:21.233Z,37.60
2018-07-25T11:39:49.699Z,38.30
2018-07-25T11:42:18.154Z,38.20
2018-07-25T11:44:46.305Z,37.40
2018-07-25T11:47:14.813Z,38.80
2018-07-25T11:49:43.038Z,40.50
2018-07-25T11:52:11.502Z,40.20
2018-07-25T11:54:40.173Z,38.10
2018-07-25T11:59:36.289Z,39.10
2018-07-25T12:02:04.921Z,41.00
2018-07-25T12:04:33.286Z,39.10
2018-07-25T12:09:30.400Z,36.00
2018-07-25T12:11:58.569Z,37.10
2018-07-25T12:14:27.034Z,37.70
2018-07-25T12:16:55.473Z,36.70
2018-07-25T12:24:20.722Z,36.40
2018-07-25T12:29:16.742Z,36.10
2018-07-25T12:31:45.025Z,37.40
2018-07-25T12:34:14.030Z,35.90
2018-07-25T12:39:11.553Z,35.50
2018-07-25T12:41:40.815Z,34.00
2018-07-25T12:44:09.114Z,36.10
2018-07-25T12:46:37.445Z,36.90
2018-07-25T12:49:06.350Z,36.90
2018-07-25T12:59:00.047Z,37.50
2018-07-25T13:01:28.261Z,38.50
2018-07-25T13:08:53.028Z,47.30
2018-07-25T13:11:22.188Z,51.80
2018-07-25T13:16:19.698Z,83.40
2018-07-25T13:18:47.769Z,99.90
2018-07-25T13:21:15.978Z,99.90
2018-07-25T13:23:46.122Z,99.90
2018-07-25T13:28:43.540Z,99.90
2018-07-25T13:33:39.685Z,99.90
2018-07-25T13:36:07.808Z,99.90
2018-07-25T13:38:36.021Z,99.90
2018-07-25T13:41:04.770Z,99.90
2018-07-25T13:43:32.929Z,99.90
2018-07-25T13:46:01.338Z,99.90
2018-07-25T13:48:29.529Z,99.90
2018-07-25T13:50:57.867Z,99.90
2018-07-25T13:53:27.669Z,99.90
2018-07-25T13:55:56.016Z,99.90
2018-07-25T13:58:24.142Z,99.90
2018-07-25T14:00:52.793Z,99.90
2018-07-25T14:03:21.843Z,99.90
2018-07-25T14:08:18.290Z,99.90
2018-07-25T14:13:14.285Z,99.90
2018-07-25T14:15:42.675Z,99.90
2018-07-25T14:18:10.904Z,99.90
2018-07-25T14:20:40.577Z,99.90
2018-07-25T14:23:08.731Z,99.90
2018-07-25T14:25:36.873Z,99.90
2018-07-25T14:28:05.064Z,99.90
2018-07-25T14:30:34.752Z,99.90
2018-07-25T14:33:03.389Z,99.90
2018-07-25T14:35:31.549Z,99.90
2018-07-25T14:37:59.617Z,99.90
2018-07-25T14:40:27.931Z,99.90
2018-07-25T14:42:58.469Z,99.90
2018-07-25T14:47:56.449Z,99.90
2018-07-25T14:50:26.281Z,99.90
2018-07-25T14:52:55.334Z,99.90
2018-07-25T14:55:23.857Z,99.90
2018-07-25T15:00:20.458Z,99.90
2018-07-25T15:02:48.605Z,99.90
2018-07-25T15:05:16.829Z,99.90
2018-07-25T15:07:44.981Z,99.90
2018-07-25T15:10:13.839Z,99.90
2018-07-25T15:12:47.387Z,99.90
2018-07-25T15:15:15.533Z,99.90
2018-07-25T15:17:43.943Z,99.90
2018-07-25T15:20:12.109Z,99.90
2018-07-25T15:22:40.829Z,99.90
2018-07-25T15:25:10.165Z,99.90
2018-07-25T15:27:39.176Z,99.90
2018-07-25T15:30:09.033Z,99.90
2018-07-25T15:32:37.593Z,99.90
2018-07-25T15:35:06.193Z,99.90
2018-07-25T15:37:35.152Z,99.90
2018-07-25T15:40:03.373Z,99.90
2018-07-25T15:42:31.986Z,99.90
2018-07-25T15:49:59.935Z,99.90
2018-07-25T15:52:28.111Z,99.90
2018-07-25T15:54:57.607Z,99.90
2018-07-25T15:57:25.970Z,99.90
2018-07-25T15:59:54.729Z,99.90
2018-07-25T16:04:50.916Z,99.90
2018-07-25T16:07:21.049Z,99.90
2018-07-25T16:09:49.397Z,99.90
2018-07-25T16:12:18.442Z,99.90
2018-07-25T16:14:46.613Z,99.90
2018-07-25T16:17:15.021Z,99.90
2018-07-25T16:19:43.781Z,99.90
2018-07-25T16:22:11.884Z,99.90
2018-07-25T16:27:09.329Z,99.90
2018-07-25T16:29:37.649Z,99.90
2018-07-25T16:37:02.981Z,99.90
2018-07-25T16:42:01.196Z,99.90
2018-07-25T16:44:29.553Z,99.90
2018-07-25T16:49:25.915Z,99.90
2018-07-25T16:51:54.778Z,99.90
2018-07-25T16:54:22.804Z,99.90
2018-07-25T16:56:52.604Z,99.90
2018-07-25T16:59:20.737Z,99.90
2018-07-25T17:01:49.182Z,99.90
2018-07-25T17:04:17.385Z,99.90
2018-07-25T17:06:45.555Z,99.90
2018-07-25T17:09:14.430Z,99.90
2018-07-25T17:11:43.553Z,99.90
2018-07-25T17:14:12.176Z,99.90
2018-07-25T17:16:41.273Z,99.90
2018-07-25T17:19:09.529Z,99.90
2018-07-25T17:26:35.422Z,99.90
2018-07-25T17:29:03.601Z,99.90
2018-07-25T17:31:32.345Z,99.90
2018-07-25T17:38:58.343Z,99.90
2018-07-25T17:41:27.091Z,99.90
2018-07-25T17:43:55.320Z,99.90
2018-07-25T17:46:23.593Z,99.90
2018-07-25T17:48:52.844Z,99.90
2018-07-25T17:56:18.081Z,99.90
2018-07-25T17:58:46.768Z,99.90
2018-07-25T18:01:15.229Z,99.90
2018-07-25T18:03:44.097Z,99.90
2018-07-25T18:06:12.758Z,99.90
2018-07-25T18:08:41.005Z,99.90
2018-07-25T18:16:11.802Z,99.90
2018-07-25T18:18:40.042Z,99.90
2018-07-25T18:21:08.512Z,99.90
2018-07-25T18:23:36.576Z,99.90
2018-07-25T18:26:05.346Z,99.90
2018-07-25T18:28:33.742Z,99.90
2018-07-25T18:31:02.529Z,99.90
2018-07-25T18:33:30.694Z,99.90
2018-07-25T18:36:01.067Z,99.90
2018-07-25T18:40:57.528Z,99.90
2018-07-25T18:45:55.723Z,99.90
2018-07-25T18:50:52.365Z,99.90
2018-07-25T18:55:49.281Z,99.90
2018-07-25T18:58:17.593Z,99.90
2018-07-25T19:00:46.477Z,99.90
2018-07-25T19:03:15.265Z,99.90
2018-07-25T19:05:43.432Z,99.90
2018-07-25T19:08:11.986Z,99.90
2018-07-25T19:10:40.049Z,99.90
2018-07-25T19:13:14.500Z,99.90
2018-07-25T19:15:43.710Z,99.90
2018-07-25T19:18:12.255Z,99.90
2018-07-25T19:20:41.154Z,99.90
2018-07-25T19:23:09.385Z,99.90
2018-07-25T19:25:37.508Z,99.90
2018-07-25T19:28:05.849Z,99.90
2018-07-25T19:33:02.214Z,99.90
2018-07-25T19:35:30.465Z,99.90
2018-07-25T19:37:58.997Z,99.90
2018-07-25T19:40:27.276Z,99.90
2018-07-25T19:42:56.006Z,99.90
2018-07-25T19:45:24.238Z,99.90
2018-07-25T19:47:53.157Z,99.90
2018-07-25T19:50:21.359Z,99.90
2018-07-25T19:52:49.481Z,99.90
2018-07-25T19:55:17.757Z,99.90
2018-07-25T19:57:46.777Z,99.90
2018-07-25T20:00:16.552Z,99.90
2018-07-25T20:02:43.522Z,99.90
2018-07-25T20:05:11.633Z,99.90
2018-07-25T20:12:36.272Z,99.90
2018-07-25T20:15:11.574Z,99.90
2018-07-25T20:17:39.965Z,99.90
2018-07-25T20:20:09.141Z,99.90
2018-07-25T20:22:38.161Z,99.90
2018-07-25T20:30:03.802Z,99.90
2018-07-25T20:32:32.693Z,99.90
2018-07-25T20:35:01.135Z,99.90
2018-07-25T20:37:29.938Z,99.90
2018-07-25T20:39:58.233Z,99.90
2018-07-25T20:42:26.489Z,99.90
2018-07-25T20:44:54.693Z,99.90
2018-07-25T20:47:23.117Z,99.90
2018-07-25T20:54:47.086Z,99.90
2018-07-25T20:57:15.917Z,99.90
2018-07-25T21:02:12.709Z,99.90
2018-07-25T21:04:40.852Z,99.90
2018-07-25T21:12:06.866Z,99.90
2018-07-25T21:14:34.945Z,99.90
2018-07-25T21:17:03.732Z,99.90
2018-07-25T21:19:32.490Z,99.90
2018-07-25T21:22:01.693Z,99.90
2018-07-25T21:24:30.886Z,99.90
2018-07-25T21:26:59.168Z,99.90
2018-07-25T21:29:27.552Z,99.90
2018-07-25T21:31:56.638Z,99.90
2018-07-25T21:34:24.736Z,99.90
2018-07-25T21:36:53.165Z,99.90
2018-07-25T21:41:51.907Z,99.90
2018-07-25T21:44:21.001Z,99.90
2018-07-25T21:46:49.234Z,99.90
2018-07-25T21:52:48.192Z,99.90
2018-07-25T21:55:16.412Z,99.90
2018-07-25T21:57:46.393Z,99.90
2018-07-25T22:00:15.860Z,99.90
2018-07-25T22:02:47.474Z,99.90
2018-07-25T22:05:15.922Z,99.90
2018-07-25T22:07:45.157Z,99.90
2018-07-25T22:10:13.294Z,99.90
2018-07-25T22:12:41.579Z,99.90
2018-07-25T22:15:11.373Z,99.90
2018-07-25T22:17:40.558Z,99.90
2018-07-25T22:22:39.116Z,99.90
2018-07-25T22:25:08.714Z,99.90
2018-07-25T22:27:37.725Z,99.90
2018-07-25T22:30:06.715Z,99.90
2018-07-25T22:32:35.014Z,99.90
2018-07-25T22:37:31.900Z,99.90
2018-07-25T22:40:00.546Z,99.90
2018-07-25T22:42:29.470Z,99.90
2018-07-25T22:47:26.462Z,99.90
2018-07-25T22:49:54.849Z,99.90
2018-07-25T22:52:23.836Z,99.90
2018-07-25T22:54:52.373Z,99.90
2018-07-25T22:59:48.898Z,99.90
2018-07-25T23:02:17.846Z,99.90
2018-07-25T23:04:46.562Z,99.90
2018-07-25T23:07:15.593Z,99.90
2018-07-25T23:09:43.829Z,99.90
2018-07-25T23:12:12.999Z,99.90
2018-07-25T23:19:41.317Z,99.90
2018-07-25T23:22:10.141Z,99.90
2018-07-25T23:24:38.803Z,99.90
2018-07-25T23:27:07.501Z,99.90
2018-07-25T23:29:36.538Z,99.90
2018-07-25T23:32:04.981Z,99.90
2018-07-25T23:34:33.352Z,99.90
2018-07-25T23:37:02.228Z,99.90
2018-07-25T23:39:30.637Z,99.90
2018-07-25T23:41:58.865Z,99.90
2018-07-25T23:46:55.893Z,99.90
2018-07-25T23:49:24.349Z,99.90
2018-07-25T23:51:52.438Z,99.90
2018-07-25T23:54:20.886Z,99.90
2018-07-25T23:56:49.450Z,99.90
